sensor_id;sensor_type;location;lat;lon;timestamp;P1;durP1;ratioP1;P2;durP2;ratioP2
48241;SDS011;34041;51.812;4.622;2022-09-19T00:02:11;8.88;;;1.98;;
48241;SDS011;34041;51.812;4.622;2022-09-19T00:05:11;4.33;;;1.80;;
48241;SDS011;34041;51.812;4.622;2022-09-19T00:08:11;7.30;;;1.60;;
48241;SDS011;34041;51.812;4.622;2022-09-19T00:11:13;4.93;;;1.73;;
48241;SDS011;34041;51.812;4.622;2022-09-19T00:14:15;2.42;;;0.98;;
48241;SDS011;34041;51.812;4.622;2022-09-19T00:17:15;3.78;;;1.45;;
48241;SDS011;34041;51.812;4.622;2022-09-19T00:20:16;7.18;;;1.65;;
48241;SDS011;34041;51.812;4.622;2022-09-19T00:23:17;6.10;;;1.65;;
48241;SDS011;34041;51.812;4.622;2022-09-19T00:26:35;7.60;;;2.25;;
48241;SDS011;34041;51.812;4.622;2022-09-19T00:29:37;7.03;;;1.67;;
48241;SDS011;34041;51.812;4.622;2022-09-19T00:32:38;8.88;;;1.25;;
48241;SDS011;34041;51.812;4.622;2022-09-19T00:35:38;5.57;;;2.53;;
48241;SDS011;34041;51.812;4.622;2022-09-19T00:38:38;7.27;;;1.50;;
48241;SDS011;34041;51.812;4.622;2022-09-19T00:41:38;5.90;;;2.07;;
48241;SDS011;34041;51.812;4.622;2022-09-19T00:47:42;3.80;;;1.10;;
48241;SDS011;34041;51.812;4.622;2022-09-19T00:50:45;4.20;;;1.35;;
48241;SDS011;34041;51.812;4.622;2022-09-19T00:53:48;4.95;;;1.95;;
48241;SDS011;34041;51.812;4.622;2022-09-19T00:56:51;6.55;;;1.88;;
48241;SDS011;34041;51.812;4.622;2022-09-19T00:59:51;4.95;;;1.55;;
48241;SDS011;34041;51.812;4.622;2022-09-19T01:02:52;5.32;;;1.33;;
48241;SDS011;34041;51.812;4.622;2022-09-19T01:06:32;5.10;;;1.57;;
48241;SDS011;34041;51.812;4.622;2022-09-19T01:16:05;6.37;;;1.57;;
48241;SDS011;34041;51.812;4.622;2022-09-19T01:29:03;4.65;;;1.10;;
48241;SDS011;34041;51.812;4.622;2022-09-19T01:32:08;5.82;;;1.10;;
48241;SDS011;34041;51.812;4.622;2022-09-19T01:35:12;7.00;;;2.03;;
48241;SDS011;34041;51.812;4.622;2022-09-19T01:38:16;6.60;;;2.00;;
48241;SDS011;34041;51.812;4.622;2022-09-19T01:41:21;7.00;;;1.42;;
48241;SDS011;34041;51.812;4.622;2022-09-19T01:44:23;3.97;;;1.50;;
48241;SDS011;34041;51.812;4.622;2022-09-19T01:56:40;3.83;;;1.80;;
48241;SDS011;34041;51.812;4.622;2022-09-19T02:02:58;2.75;;;1.60;;
48241;SDS011;34041;51.812;4.622;2022-09-19T02:06:04;3.95;;;1.38;;
48241;SDS011;34041;51.812;4.622;2022-09-19T02:12:14;4.85;;;1.48;;
48241;SDS011;34041;51.812;4.622;2022-09-19T02:15:16;4.25;;;1.65;;
48241;SDS011;34041;51.812;4.622;2022-09-19T02:18:28;5.93;;;1.58;;
48241;SDS011;34041;51.812;4.622;2022-09-19T02:21:32;6.20;;;1.52;;
48241;SDS011;34041;51.812;4.622;2022-09-19T02:24:37;3.70;;;1.52;;
48241;SDS011;34041;51.812;4.622;2022-09-19T02:27:39;7.15;;;2.13;;
48241;SDS011;34041;51.812;4.622;2022-09-19T02:30:41;6.47;;;2.08;;
48241;SDS011;34041;51.812;4.622;2022-09-19T02:33:42;6.80;;;1.60;;
48241;SDS011;34041;51.812;4.622;2022-09-19T02:36:56;7.90;;;1.50;;
48241;SDS011;34041;51.812;4.622;2022-09-19T02:46:22;6.47;;;1.45;;
48241;SDS011;34041;51.812;4.622;2022-09-19T02:52:30;5.55;;;1.98;;
48241;SDS011;34041;51.812;4.622;2022-09-19T02:55:33;6.85;;;1.67;;
48241;SDS011;34041;51.812;4.622;2022-09-19T02:58:37;7.47;;;1.27;;
48241;SDS011;34041;51.812;4.622;2022-09-19T03:01:39;4.40;;;1.45;;
48241;SDS011;34041;51.812;4.622;2022-09-19T03:04:43;3.53;;;1.38;;
48241;SDS011;34041;51.812;4.622;2022-09-19T03:07:48;5.07;;;1.70;;
48241;SDS011;34041;51.812;4.622;2022-09-19T03:10:51;6.05;;;1.95;;
48241;SDS011;34041;51.812;4.622;2022-09-19T03:13:52;4.28;;;2.05;;
48241;SDS011;34041;51.812;4.622;2022-09-19T03:16:58;7.68;;;2.00;;
48241;SDS011;34041;51.812;4.622;2022-09-19T03:19:59;6.47;;;1.10;;
48241;SDS011;34041;51.812;4.622;2022-09-19T03:22:59;4.40;;;1.98;;
48241;SDS011;34041;51.812;4.622;2022-09-19T03:26:00;4.25;;;1.30;;
48241;SDS011;34041;51.812;4.622;2022-09-19T03:29:05;5.43;;;1.90;;
48241;SDS011;34041;51.812;4.622;2022-09-19T03:32:06;5.93;;;1.58;;
48241;SDS011;34041;51.812;4.622;2022-09-19T03:35:07;4.17;;;2.03;;
48241;SDS011;34041;51.812;4.622;2022-09-19T03:38:08;7.68;;;1.98;;
48241;SDS011;34041;51.812;4.622;2022-09-19T03:41:08;3.58;;;1.42;;
48241;SDS011;34041;51.812;4.622;2022-09-19T03:44:08;4.93;;;1.50;;
48241;SDS011;34041;51.812;4.622;2022-09-19T03:47:08;4.83;;;1.13;;
48241;SDS011;34041;51.812;4.622;2022-09-19T03:50:09;3.25;;;1.25;;
48241;SDS011;34041;51.812;4.622;2022-09-19T03:53:10;8.20;;;1.50;;
48241;SDS011;34041;51.812;4.622;2022-09-19T03:56:11;5.38;;;1.63;;
48241;SDS011;34041;51.812;4.622;2022-09-19T03:59:11;5.88;;;1.55;;
48241;SDS011;34041;51.812;4.622;2022-09-19T04:02:12;6.20;;;1.90;;
48241;SDS011;34041;51.812;4.622;2022-09-19T04:05:12;6.13;;;1.43;;
48241;SDS011;34041;51.812;4.622;2022-09-19T04:08:13;4.95;;;1.88;;
48241;SDS011;34041;51.812;4.622;2022-09-19T04:11:13;4.20;;;1.47;;
48241;SDS011;34041;51.812;4.622;2022-09-19T04:14:13;5.63;;;1.85;;
48241;SDS011;34041;51.812;4.622;2022-09-19T04:17:15;5.20;;;1.33;;
48241;SDS011;34041;51.812;4.622;2022-09-19T04:20:16;2.63;;;1.13;;
48241;SDS011;34041;51.812;4.622;2022-09-19T04:23:17;3.55;;;1.17;;
48241;SDS011;34041;51.812;4.622;2022-09-19T04:26:18;4.40;;;1.35;;
48241;SDS011;34041;51.812;4.622;2022-09-19T04:29:18;7.25;;;2.17;;
48241;SDS011;34041;51.812;4.622;2022-09-19T04:32:19;5.38;;;1.73;;
48241;SDS011;34041;51.812;4.622;2022-09-19T04:35:21;4.30;;;1.40;;
48241;SDS011;34041;51.812;4.622;2022-09-19T04:38:22;8.23;;;1.67;;
48241;SDS011;34041;51.812;4.622;2022-09-19T04:41:23;3.45;;;1.60;;
48241;SDS011;34041;51.812;4.622;2022-09-19T04:44:24;6.05;;;1.63;;
48241;SDS011;34041;51.812;4.622;2022-09-19T04:47:29;3.97;;;1.35;;
48241;SDS011;34041;51.812;4.622;2022-09-19T04:50:32;6.68;;;1.33;;
48241;SDS011;34041;51.812;4.622;2022-09-19T04:53:32;2.78;;;0.90;;
48241;SDS011;34041;51.812;4.622;2022-09-19T04:56:38;6.97;;;1.50;;
48241;SDS011;34041;51.812;4.622;2022-09-19T04:59:38;4.22;;;1.38;;
48241;SDS011;34041;51.812;4.622;2022-09-19T05:02:39;4.90;;;1.60;;
48241;SDS011;34041;51.812;4.622;2022-09-19T05:05:40;6.88;;;1.85;;
48241;SDS011;34041;51.812;4.622;2022-09-19T05:09:00;14.93;;;3.92;;
48241;SDS011;34041;51.812;4.622;2022-09-19T05:12:01;30.47;;;9.93;;
48241;SDS011;34041;51.812;4.622;2022-09-19T05:15:01;14.93;;;4.53;;
48241;SDS011;34041;51.812;4.622;2022-09-19T05:18:01;17.98;;;5.05;;
48241;SDS011;34041;51.812;4.622;2022-09-19T05:21:02;12.87;;;3.67;;
48241;SDS011;34041;51.812;4.622;2022-09-19T05:24:03;11.95;;;2.95;;
48241;SDS011;34041;51.812;4.622;2022-09-19T05:27:03;17.48;;;4.00;;
48241;SDS011;34041;51.812;4.622;2022-09-19T05:30:04;21.42;;;4.20;;
48241;SDS011;34041;51.812;4.622;2022-09-19T05:33:06;11.38;;;3.45;;
48241;SDS011;34041;51.812;4.622;2022-09-19T05:36:07;12.38;;;3.45;;
48241;SDS011;34041;51.812;4.622;2022-09-19T05:39:07;16.10;;;3.53;;
48241;SDS011;34041;51.812;4.622;2022-09-19T05:42:08;10.20;;;2.63;;
48241;SDS011;34041;51.812;4.622;2022-09-19T05:45:09;11.18;;;3.13;;
48241;SDS011;34041;51.812;4.622;2022-09-19T05:48:09;8.80;;;2.97;;
48241;SDS011;34041;51.812;4.622;2022-09-19T05:51:10;9.68;;;3.13;;
48241;SDS011;34041;51.812;4.622;2022-09-19T05:54:10;9.33;;;2.50;;
48241;SDS011;34041;51.812;4.622;2022-09-19T05:57:10;7.43;;;2.77;;
48241;SDS011;34041;51.812;4.622;2022-09-19T06:00:11;8.97;;;2.67;;
48241;SDS011;34041;51.812;4.622;2022-09-19T06:03:12;6.28;;;2.30;;
48241;SDS011;34041;51.812;4.622;2022-09-19T06:06:16;10.43;;;3.33;;
48241;SDS011;34041;51.812;4.622;2022-09-19T06:09:18;8.07;;;2.05;;
48241;SDS011;34041;51.812;4.622;2022-09-19T06:12:18;7.60;;;2.50;;
48241;SDS011;34041;51.812;4.622;2022-09-19T06:15:19;8.40;;;3.10;;
48241;SDS011;34041;51.812;4.622;2022-09-19T06:18:19;8.37;;;3.07;;
48241;SDS011;34041;51.812;4.622;2022-09-19T06:21:19;6.53;;;2.00;;
48241;SDS011;34041;51.812;4.622;2022-09-19T06:24:19;5.27;;;1.73;;
48241;SDS011;34041;51.812;4.622;2022-09-19T06:27:19;4.37;;;1.40;;
48241;SDS011;34041;51.812;4.622;2022-09-19T06:30:20;5.77;;;2.07;;
48241;SDS011;34041;51.812;4.622;2022-09-19T06:33:20;3.60;;;1.67;;
48241;SDS011;34041;51.812;4.622;2022-09-19T06:36:20;4.53;;;1.53;;
48241;SDS011;34041;51.812;4.622;2022-09-19T06:39:20;8.60;;;1.70;;
48241;SDS011;34041;51.812;4.622;2022-09-19T06:42:21;6.70;;;2.30;;
48241;SDS011;34041;51.812;4.622;2022-09-19T06:45:21;3.20;;;1.60;;
48241;SDS011;34041;51.812;4.622;2022-09-19T06:48:23;5.10;;;2.03;;
48241;SDS011;34041;51.812;4.622;2022-09-19T06:51:23;5.32;;;1.42;;
48241;SDS011;34041;51.812;4.622;2022-09-19T06:54:23;3.53;;;1.33;;
48241;SDS011;34041;51.812;4.622;2022-09-19T06:57:23;5.20;;;1.53;;
48241;SDS011;34041;51.812;4.622;2022-09-19T07:00:24;3.97;;;1.50;;
48241;SDS011;34041;51.812;4.622;2022-09-19T07:03:25;3.78;;;1.23;;
48241;SDS011;34041;51.812;4.622;2022-09-19T07:06:25;6.50;;;1.55;;
48241;SDS011;34041;51.812;4.622;2022-09-19T07:09:25;4.47;;;1.45;;
48241;SDS011;34041;51.812;4.622;2022-09-19T07:12:25;5.40;;;1.07;;
48241;SDS011;34041;51.812;4.622;2022-09-19T07:15:26;3.50;;;1.53;;
48241;SDS011;34041;51.812;4.622;2022-09-19T07:18:26;5.07;;;1.43;;
48241;SDS011;34041;51.812;4.622;2022-09-19T07:21:27;3.92;;;1.30;;
48241;SDS011;34041;51.812;4.622;2022-09-19T07:24:27;2.72;;;0.88;;
48241;SDS011;34041;51.812;4.622;2022-09-19T07:27:27;4.65;;;1.73;;
48241;SDS011;34041;51.812;4.622;2022-09-19T07:30:28;6.53;;;1.58;;
48241;SDS011;34041;51.812;4.622;2022-09-19T07:33:28;4.38;;;1.73;;
48241;SDS011;34041;51.812;4.622;2022-09-19T07:36:30;3.50;;;1.30;;
48241;SDS011;34041;51.812;4.622;2022-09-19T07:39:30;4.60;;;1.57;;
48241;SDS011;34041;51.812;4.622;2022-09-19T07:42:30;4.17;;;1.33;;
48241;SDS011;34041;51.812;4.622;2022-09-19T07:45:34;8.37;;;1.47;;
48241;SDS011;34041;51.812;4.622;2022-09-19T07:48:35;3.70;;;1.20;;
48241;SDS011;34041;51.812;4.622;2022-09-19T07:51:35;4.30;;;1.37;;
48241;SDS011;34041;51.812;4.622;2022-09-19T07:54:36;4.32;;;1.27;;
48241;SDS011;34041;51.812;4.622;2022-09-19T07:57:36;4.10;;;1.93;;
48241;SDS011;34041;51.812;4.622;2022-09-19T08:00:36;3.60;;;1.23;;
48241;SDS011;34041;51.812;4.622;2022-09-19T08:03:37;3.83;;;1.85;;
48241;SDS011;34041;51.812;4.622;2022-09-19T08:06:37;5.57;;;1.20;;
48241;SDS011;34041;51.812;4.622;2022-09-19T08:09:37;3.55;;;1.17;;
48241;SDS011;34041;51.812;4.622;2022-09-19T08:12:38;3.75;;;1.35;;
48241;SDS011;34041;51.812;4.622;2022-09-19T08:15:38;4.70;;;1.90;;
48241;SDS011;34041;51.812;4.622;2022-09-19T08:18:38;2.45;;;1.08;;
48241;SDS011;34041;51.812;4.622;2022-09-19T08:21:40;4.70;;;1.73;;
48241;SDS011;34041;51.812;4.622;2022-09-19T08:24:41;4.07;;;1.43;;
48241;SDS011;34041;51.812;4.622;2022-09-19T08:27:44;2.87;;;1.30;;
48241;SDS011;34041;51.812;4.622;2022-09-19T08:30:44;2.97;;;1.27;;
48241;SDS011;34041;51.812;4.622;2022-09-19T08:33:47;7.82;;;1.83;;
48241;SDS011;34041;51.812;4.622;2022-09-19T08:36:47;2.70;;;1.05;;
48241;SDS011;34041;51.812;4.622;2022-09-19T08:39:47;2.53;;;0.83;;
48241;SDS011;34041;51.812;4.622;2022-09-19T08:43:14;4.13;;;1.25;;
48241;SDS011;34041;51.812;4.622;2022-09-19T08:46:19;5.35;;;1.90;;
48241;SDS011;34041;51.812;4.622;2022-09-19T08:49:24;5.03;;;2.22;;
48241;SDS011;34041;51.812;4.622;2022-09-19T08:55:32;6.50;;;1.30;;
48241;SDS011;34041;51.812;4.622;2022-09-19T08:58:33;6.30;;;1.70;;
48241;SDS011;34041;51.812;4.622;2022-09-19T09:01:37;3.35;;;1.52;;
48241;SDS011;34041;51.812;4.622;2022-09-19T09:04:38;2.50;;;0.80;;
48241;SDS011;34041;51.812;4.622;2022-09-19T09:07:47;4.07;;;1.10;;
48241;SDS011;34041;51.812;4.622;2022-09-19T09:10:52;3.40;;;1.33;;
48241;SDS011;34041;51.812;4.622;2022-09-19T09:14:02;5.27;;;1.10;;
48241;SDS011;34041;51.812;4.622;2022-09-19T09:23:27;4.85;;;1.38;;
48241;SDS011;34041;51.812;4.622;2022-09-19T09:26:30;3.88;;;1.15;;
48241;SDS011;34041;51.812;4.622;2022-09-19T09:29:37;4.28;;;1.73;;
48241;SDS011;34041;51.812;4.622;2022-09-19T09:32:40;5.43;;;1.17;;
48241;SDS011;34041;51.812;4.622;2022-09-19T09:35:44;4.32;;;1.60;;
48241;SDS011;34041;51.812;4.622;2022-09-19T09:38:57;4.22;;;1.40;;
48241;SDS011;34041;51.812;4.622;2022-09-19T09:41:59;4.07;;;1.23;;
48241;SDS011;34041;51.812;4.622;2022-09-19T09:54:35;3.92;;;1.35;;
48241;SDS011;34041;51.812;4.622;2022-09-19T09:57:59;3.55;;;1.08;;
48241;SDS011;34041;51.812;4.622;2022-09-19T10:01:14;1.67;;;0.85;;
48241;SDS011;34041;51.812;4.622;2022-09-19T10:08:00;2.88;;;1.02;;
48241;SDS011;34041;51.812;4.622;2022-09-19T10:11:18;5.00;;;1.60;;
48241;SDS011;34041;51.812;4.622;2022-09-19T10:14:19;4.05;;;1.08;;
48241;SDS011;34041;51.812;4.622;2022-09-19T10:17:21;3.17;;;1.10;;
48241;SDS011;34041;51.812;4.622;2022-09-19T10:20:22;3.55;;;1.65;;
48241;SDS011;34041;51.812;4.622;2022-09-19T10:23:26;3.60;;;1.40;;
48241;SDS011;34041;51.812;4.622;2022-09-19T10:26:30;4.97;;;1.38;;
48241;SDS011;34041;51.812;4.622;2022-09-19T10:29:30;1.63;;;0.85;;
48241;SDS011;34041;51.812;4.622;2022-09-19T10:32:31;4.33;;;1.10;;
48241;SDS011;34041;51.812;4.622;2022-09-19T10:35:35;4.40;;;1.00;;
48241;SDS011;34041;51.812;4.622;2022-09-19T10:38:49;3.15;;;0.82;;
48241;SDS011;34041;51.812;4.622;2022-09-19T10:41:50;2.72;;;1.05;;
48241;SDS011;34041;51.812;4.622;2022-09-19T10:44:51;2.83;;;1.03;;
48241;SDS011;34041;51.812;4.622;2022-09-19T10:47:53;2.22;;;1.10;;
48241;SDS011;34041;51.812;4.622;2022-09-19T10:50:54;3.63;;;1.05;;
48241;SDS011;34041;51.812;4.622;2022-09-19T10:53:55;4.93;;;1.00;;
48241;SDS011;34041;51.812;4.622;2022-09-19T10:56:56;4.15;;;1.33;;
48241;SDS011;34041;51.812;4.622;2022-09-19T10:59:58;3.13;;;1.27;;
48241;SDS011;34041;51.812;4.622;2022-09-19T11:03:24;3.58;;;1.05;;
48241;SDS011;34041;51.812;4.622;2022-09-19T11:06:23;5.97;;;1.40;;
48241;SDS011;34041;51.812;4.622;2022-09-19T11:09:27;3.67;;;1.57;;
48241;SDS011;34041;51.812;4.622;2022-09-19T11:12:28;4.05;;;1.35;;
48241;SDS011;34041;51.812;4.622;2022-09-19T11:15:33;5.57;;;1.30;;
48241;SDS011;34041;51.812;4.622;2022-09-19T11:18:40;3.67;;;0.82;;
48241;SDS011;34041;51.812;4.622;2022-09-19T11:25:14;6.32;;;1.83;;
48241;SDS011;34041;51.812;4.622;2022-09-19T11:40:51;5.77;;;1.10;;
48241;SDS011;34041;51.812;4.622;2022-09-19T11:50:46;6.10;;;1.08;;
48241;SDS011;34041;51.812;4.622;2022-09-19T12:00:22;2.15;;;1.08;;
48241;SDS011;34041;51.812;4.622;2022-09-19T12:04:08;4.85;;;1.13;;
48241;SDS011;34041;51.812;4.622;2022-09-19T12:09:59;3.35;;;0.98;;
48241;SDS011;34041;51.812;4.622;2022-09-19T12:13:02;1.20;;;0.60;;
48241;SDS011;34041;51.812;4.622;2022-09-19T12:16:06;5.20;;;1.27;;
48241;SDS011;34041;51.812;4.622;2022-09-19T12:19:12;3.63;;;1.15;;
48241;SDS011;34041;51.812;4.622;2022-09-19T12:22:16;2.05;;;0.70;;
48241;SDS011;34041;51.812;4.622;2022-09-19T12:25:19;2.80;;;0.98;;
48241;SDS011;34041;51.812;4.622;2022-09-19T12:28:20;3.00;;;0.77;;
48241;SDS011;34041;51.812;4.622;2022-09-19T12:31:23;4.63;;;1.45;;
48241;SDS011;34041;51.812;4.622;2022-09-19T12:35:08;3.30;;;1.10;;
48241;SDS011;34041;51.812;4.622;2022-09-19T12:41:04;7.43;;;1.55;;
48241;SDS011;34041;51.812;4.622;2022-09-19T12:47:21;3.53;;;1.08;;
48241;SDS011;34041;51.812;4.622;2022-09-19T12:50:29;3.88;;;1.00;;
48241;SDS011;34041;51.812;4.622;2022-09-19T12:53:38;3.53;;;1.15;;
48241;SDS011;34041;51.812;4.622;2022-09-19T12:56:41;3.83;;;0.82;;
48241;SDS011;34041;51.812;4.622;2022-09-19T12:59:44;4.15;;;1.27;;
48241;SDS011;34041;51.812;4.622;2022-09-19T13:03:05;3.38;;;0.88;;
48241;SDS011;34041;51.812;4.622;2022-09-19T13:06:12;4.13;;;1.23;;
48241;SDS011;34041;51.812;4.622;2022-09-19T13:09:16;6.45;;;0.93;;
48241;SDS011;34041;51.812;4.622;2022-09-19T13:12:19;2.13;;;0.70;;
48241;SDS011;34041;51.812;4.622;2022-09-19T13:15:24;2.20;;;0.68;;
48241;SDS011;34041;51.812;4.622;2022-09-19T13:18:26;3.25;;;0.70;;
48241;SDS011;34041;51.812;4.622;2022-09-19T13:21:47;4.43;;;1.20;;
48241;SDS011;34041;51.812;4.622;2022-09-19T13:25:11;3.00;;;0.80;;
48241;SDS011;34041;51.812;4.622;2022-09-19T13:31:22;3.67;;;0.75;;
48241;SDS011;34041;51.812;4.622;2022-09-19T13:46:53;3.25;;;0.80;;
48241;SDS011;34041;51.812;4.622;2022-09-19T13:50:10;1.70;;;0.70;;
48241;SDS011;34041;51.812;4.622;2022-09-19T13:53:37;2.22;;;0.88;;
48241;SDS011;34041;51.812;4.622;2022-09-19T13:56:38;2.50;;;0.90;;
48241;SDS011;34041;51.812;4.622;2022-09-19T14:03:00;5.25;;;1.20;;
48241;SDS011;34041;51.812;4.622;2022-09-19T14:18:43;2.75;;;0.70;;
48241;SDS011;34041;51.812;4.622;2022-09-19T14:21:51;1.83;;;0.70;;
48241;SDS011;34041;51.812;4.622;2022-09-19T14:24:53;2.65;;;0.90;;
48241;SDS011;34041;51.812;4.622;2022-09-19T14:34:35;3.13;;;0.90;;
48241;SDS011;34041;51.812;4.622;2022-09-19T14:47:18;2.20;;;0.80;;
48241;SDS011;34041;51.812;4.622;2022-09-19T14:50:25;4.05;;;1.20;;
48241;SDS011;34041;51.812;4.622;2022-09-19T14:53:28;4.72;;;1.17;;
48241;SDS011;34041;51.812;4.622;2022-09-19T14:56:31;1.33;;;0.60;;
48241;SDS011;34041;51.812;4.622;2022-09-19T14:59:32;5.38;;;1.00;;
48241;SDS011;34041;51.812;4.622;2022-09-19T15:02:35;2.17;;;0.88;;
48241;SDS011;34041;51.812;4.622;2022-09-19T15:05:35;3.40;;;0.98;;
48241;SDS011;34041;51.812;4.622;2022-09-19T15:08:38;2.33;;;0.80;;
48241;SDS011;34041;51.812;4.622;2022-09-19T15:11:50;1.50;;;0.60;;
48241;SDS011;34041;51.812;4.622;2022-09-19T15:14:51;2.47;;;1.08;;
48241;SDS011;34041;51.812;4.622;2022-09-19T15:17:53;2.35;;;0.80;;
48241;SDS011;34041;51.812;4.622;2022-09-19T15:20:57;2.83;;;0.82;;
48241;SDS011;34041;51.812;4.622;2022-09-19T15:23:58;2.72;;;0.75;;
48241;SDS011;34041;51.812;4.622;2022-09-19T15:26:59;4.10;;;1.58;;
48241;SDS011;34041;51.812;4.622;2022-09-19T15:30:13;4.33;;;0.80;;
48241;SDS011;34041;51.812;4.622;2022-09-19T15:33:17;6.53;;;1.63;;
48241;SDS011;34041;51.812;4.622;2022-09-19T15:36:20;3.42;;;1.10;;
48241;SDS011;34041;51.812;4.622;2022-09-19T15:39:23;4.50;;;1.10;;
48241;SDS011;34041;51.812;4.622;2022-09-19T15:42:24;2.45;;;0.93;;
48241;SDS011;34041;51.812;4.622;2022-09-19T15:48:25;3.55;;;1.02;;
48241;SDS011;34041;51.812;4.622;2022-09-19T15:51:28;1.30;;;0.57;;
48241;SDS011;34041;51.812;4.622;2022-09-19T15:54:32;1.55;;;0.63;;
48241;SDS011;34041;51.812;4.622;2022-09-19T15:57:36;1.73;;;0.50;;
48241;SDS011;34041;51.812;4.622;2022-09-19T16:00:39;6.07;;;1.23;;
48241;SDS011;34041;51.812;4.622;2022-09-19T16:04:29;4.05;;;0.80;;
48241;SDS011;34041;51.812;4.622;2022-09-19T16:07:04;1.20;;;0.55;;
48241;SDS011;34041;51.812;4.622;2022-09-19T16:10:24;2.22;;;0.80;;
48241;SDS011;34041;51.812;4.622;2022-09-19T16:13:37;4.07;;;0.70;;
48241;SDS011;34041;51.812;4.622;2022-09-19T16:16:39;2.65;;;0.93;;
48241;SDS011;34041;51.812;4.622;2022-09-19T16:19:40;2.78;;;1.08;;
48241;SDS011;34041;51.812;4.622;2022-09-19T16:22:41;2.35;;;0.70;;
48241;SDS011;34041;51.812;4.622;2022-09-19T16:25:48;1.83;;;0.67;;
48241;SDS011;34041;51.812;4.622;2022-09-19T16:28:51;2.75;;;0.80;;
48241;SDS011;34041;51.812;4.622;2022-09-19T16:31:51;6.07;;;1.38;;
48241;SDS011;34041;51.812;4.622;2022-09-19T16:34:54;3.75;;;0.82;;
48241;SDS011;34041;51.812;4.622;2022-09-19T16:37:55;2.65;;;0.88;;
48241;SDS011;34041;51.812;4.622;2022-09-19T16:40:56;1.98;;;0.82;;
48241;SDS011;34041;51.812;4.622;2022-09-19T16:44:01;3.58;;;1.00;;
48241;SDS011;34041;51.812;4.622;2022-09-19T16:50:18;2.95;;;0.90;;
48241;SDS011;34041;51.812;4.622;2022-09-19T16:53:19;2.25;;;0.85;;
48241;SDS011;34041;51.812;4.622;2022-09-19T16:56:19;2.57;;;1.10;;
48241;SDS011;34041;51.812;4.622;2022-09-19T16:59:19;3.20;;;0.90;;
48241;SDS011;34041;51.812;4.622;2022-09-19T17:02:24;3.80;;;1.20;;
48241;SDS011;34041;51.812;4.622;2022-09-19T17:08:27;2.15;;;0.77;;
48241;SDS011;34041;51.812;4.622;2022-09-19T17:11:27;3.85;;;1.13;;
48241;SDS011;34041;51.812;4.622;2022-09-19T17:14:27;2.43;;;0.80;;
48241;SDS011;34041;51.812;4.622;2022-09-19T17:17:27;5.20;;;1.60;;
48241;SDS011;34041;51.812;4.622;2022-09-19T17:20:28;2.47;;;0.90;;
48241;SDS011;34041;51.812;4.622;2022-09-19T17:23:28;3.25;;;0.90;;
48241;SDS011;34041;51.812;4.622;2022-09-19T17:26:29;1.58;;;0.70;;
48241;SDS011;34041;51.812;4.622;2022-09-19T17:29:29;4.90;;;1.23;;
48241;SDS011;34041;51.812;4.622;2022-09-19T17:32:30;4.35;;;1.27;;
48241;SDS011;34041;51.812;4.622;2022-09-19T17:35:31;4.63;;;1.10;;
48241;SDS011;34041;51.812;4.622;2022-09-19T17:38:31;2.45;;;0.90;;
48241;SDS011;34041;51.812;4.622;2022-09-19T17:41:33;3.15;;;1.35;;
48241;SDS011;34041;51.812;4.622;2022-09-19T17:44:34;2.80;;;1.27;;
48241;SDS011;34041;51.812;4.622;2022-09-19T17:47:35;3.97;;;0.88;;
48241;SDS011;34041;51.812;4.622;2022-09-19T17:50:35;3.97;;;1.35;;
48241;SDS011;34041;51.812;4.622;2022-09-19T17:53:35;3.83;;;1.13;;
48241;SDS011;34041;51.812;4.622;2022-09-19T17:56:36;2.00;;;0.90;;
48241;SDS011;34041;51.812;4.622;2022-09-19T17:59:37;2.92;;;1.13;;
48241;SDS011;34041;51.812;4.622;2022-09-19T18:02:37;2.63;;;0.80;;
48241;SDS011;34041;51.812;4.622;2022-09-19T18:05:57;3.80;;;1.35;;
48241;SDS011;34041;51.812;4.622;2022-09-19T18:08:58;2.92;;;1.20;;
48241;SDS011;34041;51.812;4.622;2022-09-19T18:11:59;6.10;;;1.30;;
48241;SDS011;34041;51.812;4.622;2022-09-19T18:14:59;5.00;;;1.77;;
48241;SDS011;34041;51.812;4.622;2022-09-19T18:18:00;3.38;;;1.40;;
48241;SDS011;34041;51.812;4.622;2022-09-19T18:21:01;5.90;;;1.60;;
48241;SDS011;34041;51.812;4.622;2022-09-19T18:24:03;5.68;;;1.60;;
48241;SDS011;34041;51.812;4.622;2022-09-19T18:27:03;3.63;;;1.30;;
48241;SDS011;34041;51.812;4.622;2022-09-19T18:30:04;4.33;;;1.27;;
48241;SDS011;34041;51.812;4.622;2022-09-19T18:33:04;2.78;;;1.30;;
48241;SDS011;34041;51.812;4.622;2022-09-19T18:36:05;6.80;;;1.70;;
48241;SDS011;34041;51.812;4.622;2022-09-19T18:39:06;5.05;;;1.75;;
48241;SDS011;34041;51.812;4.622;2022-09-19T18:42:09;4.75;;;1.83;;
48241;SDS011;34041;51.812;4.622;2022-09-19T18:45:10;5.18;;;1.63;;
48241;SDS011;34041;51.812;4.622;2022-09-19T18:48:11;8.18;;;2.90;;
48241;SDS011;34041;51.812;4.622;2022-09-19T18:51:13;4.72;;;1.52;;
48241;SDS011;34041;51.812;4.622;2022-09-19T18:54:13;4.03;;;1.38;;
48241;SDS011;34041;51.812;4.622;2022-09-19T18:57:14;4.22;;;1.20;;
48241;SDS011;34041;51.812;4.622;2022-09-19T19:00:14;3.90;;;1.20;;
48241;SDS011;34041;51.812;4.622;2022-09-19T19:03:14;4.20;;;1.45;;
48241;SDS011;34041;51.812;4.622;2022-09-19T19:06:15;2.75;;;1.08;;
48241;SDS011;34041;51.812;4.622;2022-09-19T19:09:16;3.00;;;1.00;;
48241;SDS011;34041;51.812;4.622;2022-09-19T19:12:16;5.05;;;1.23;;
48241;SDS011;34041;51.812;4.622;2022-09-19T19:15:16;5.25;;;1.50;;
48241;SDS011;34041;51.812;4.622;2022-09-19T19:18:17;5.07;;;1.23;;
48241;SDS011;34041;51.812;4.622;2022-09-19T19:21:23;6.28;;;2.03;;
48241;SDS011;34041;51.812;4.622;2022-09-19T19:24:26;6.38;;;2.20;;
48241;SDS011;34041;51.812;4.622;2022-09-19T19:27:26;8.32;;;3.25;;
48241;SDS011;34041;51.812;4.622;2022-09-19T19:30:26;6.03;;;2.73;;
48241;SDS011;34041;51.812;4.622;2022-09-19T19:33:27;6.03;;;2.47;;
48241;SDS011;34041;51.812;4.622;2022-09-19T19:36:27;8.15;;;3.15;;
48241;SDS011;34041;51.812;4.622;2022-09-19T19:39:27;5.47;;;2.72;;
48241;SDS011;34041;51.812;4.622;2022-09-19T19:42:28;6.50;;;2.37;;
48241;SDS011;34041;51.812;4.622;2022-09-19T19:45:28;7.03;;;3.43;;
48241;SDS011;34041;51.812;4.622;2022-09-19T19:48:29;5.20;;;2.13;;
48241;SDS011;34041;51.812;4.622;2022-09-19T19:51:30;5.55;;;2.28;;
48241;SDS011;34041;51.812;4.622;2022-09-19T19:54:33;4.72;;;2.67;;
48241;SDS011;34041;51.812;4.622;2022-09-19T19:57:33;7.10;;;2.95;;
48241;SDS011;34041;51.812;4.622;2022-09-19T20:00:33;4.63;;;2.20;;
48241;SDS011;34041;51.812;4.622;2022-09-19T20:03:35;4.57;;;2.17;;
48241;SDS011;34041;51.812;4.622;2022-09-19T20:06:36;4.68;;;2.22;;
48241;SDS011;34041;51.812;4.622;2022-09-19T20:09:36;5.90;;;2.78;;
48241;SDS011;34041;51.812;4.622;2022-09-19T20:12:37;5.10;;;2.40;;
48241;SDS011;34041;51.812;4.622;2022-09-19T20:15:37;5.40;;;1.70;;
48241;SDS011;34041;51.812;4.622;2022-09-19T20:18:39;2.88;;;1.52;;
48241;SDS011;34041;51.812;4.622;2022-09-19T20:21:40;6.80;;;2.17;;
48241;SDS011;34041;51.812;4.622;2022-09-19T20:24:40;4.63;;;1.52;;
48241;SDS011;34041;51.812;4.622;2022-09-19T20:27:40;3.13;;;1.43;;
48241;SDS011;34041;51.812;4.622;2022-09-19T20:30:41;4.50;;;1.73;;
48241;SDS011;34041;51.812;4.622;2022-09-19T20:33:41;4.05;;;1.90;;
48241;SDS011;34041;51.812;4.622;2022-09-19T20:36:41;5.97;;;2.07;;
48241;SDS011;34041;51.812;4.622;2022-09-19T20:39:42;2.77;;;1.33;;
48241;SDS011;34041;51.812;4.622;2022-09-19T20:42:42;4.17;;;1.57;;
48241;SDS011;34041;51.812;4.622;2022-09-19T20:45:42;3.53;;;1.43;;
48241;SDS011;34041;51.812;4.622;2022-09-19T20:48:43;3.57;;;1.60;;
48241;SDS011;34041;51.812;4.622;2022-09-19T20:51:46;3.45;;;1.55;;
48241;SDS011;34041;51.812;4.622;2022-09-19T20:54:46;3.50;;;1.40;;
48241;SDS011;34041;51.812;4.622;2022-09-19T20:57:47;5.90;;;1.63;;
48241;SDS011;34041;51.812;4.622;2022-09-19T21:00:56;2.77;;;1.40;;
48241;SDS011;34041;51.812;4.622;2022-09-19T21:03:56;6.20;;;1.58;;
48241;SDS011;34041;51.812;4.622;2022-09-19T21:06:56;3.93;;;1.27;;